Dorothy, WV (25060)

7:15 AM EST on February 20, 2017 (GMT -0500)
Fairdale | | Change Station

Elev 1938 ft 37.74 °N, 81.35 °W | Updated 13 seconds ago

Fog
Fog
31.8 °F
Feels Like 32 °F
N
0.0
Wind Variable Wind from NW
Gusts 0.0 mph

Today
High -- | Low -- °F
--% Chance of Precip.
Yesterday
High -- | Low -- °F
Precip. -- in
Pressure 30.27 in
Visibility 0.2 miles
Clouds
Windchill 32 °F
Dew Point 29 °F
Humidity 89%
Rainfall 0.00 in
Snow Depth Not available.
7:09 AM 6:10 PM
Waning Crescent, 34% visible
METAR KBKW 201151Z AUTO 00000KT M1/4SM FZFG VV001 M01/M02 A3022 RMK AO2 SLP251 I1001 I6001 T10111017 10033 21011 53010
Pressure 30.27 in
Visibility 0.2 miles
Clouds
Windchill 32 °F
Dew Point 29 °F
Humidity 89%
Rainfall 0.00 in
Snow Depth Not available.
7:09 AM 6:10 PM
Waning Crescent, 34% visible
METAR KBKW 201151Z AUTO 00000KT M1/4SM FZFG VV001 M01/M02 A3022 RMK AO2 SLP251 I1001 I6001 T10111017 10033 21011 53010

Get Your Daily Forecast Email!

Thanks for signing up!

Be on the lookout for a verification email in your inbox.

You'll start receiving the daily forecast at 8 AM.

×

10-Day Weather Forecast

Almanac

Astronomy

Feb. 20, 2017 Rise Set
Actual Time
Civil Twilight
Nautical Twilight
Astronomical Twilight
Moon
Length of Visible Light
Length of Day
Tomorrow will be .
, % of the Moon is Illuminated

Today's Extremes

State Highs State Lows

Community

WunderPhotos

Upload Photos

1,962,540 photos uploaded!

WunderBlog® & News

Nearby

Air Quality

  Air Quality AQ Index Pollutant
Not available.

Snow Depth

Station Depth Elevation

Earthquake Activity

City Distance Mag. Time & Date
Minimum magnitude displayed is 2.5.

Coastal Water Temperatures

Place Temperature

Stations

Nearby Weather Stations

Station Location Temp. Windchill Dew Point Humidity Wind Precip. Elev Updated Type
                   

Watches & Warnings

There are currently no watches in effect.